Time;durP1;ratioP1;P1;durP2;ratioP2;P2;SDS_P1;SDS_P2;PMS_P1;PMS_P2;Temp;Humidity;BMP_temperature;BMP_pressure;BME280_temperature;BME280_humidity;BME280_pressure;Samples;Min_cycle;Max_cycle;Signal;HPM_P1;HPM_P2
2022/06/11 00:01:42;;;;;;;0.20;0.20;;;;;;;;;;5097874;28;20032;-76
2022/06/11 00:04:11;;;;;;;2.72;1.48;;;;;;;;;;5080323;28;20081;-76
2022/06/11 00:06:41;;;;;;;0.15;0.15;;;;;;;;;;5063722;28;20082;-76
2022/06/11 00:09:07;;;;;;;9.27;8.40;;;;;;;;;;5080456;28;20115;-76
2022/06/11 00:11:33;;;;;;;0.20;0.20;;;;;;;;;;5098581;28;20064;-76
2022/06/11 00:13:58;;;;;;;0.10;0.10;;;;;;;;;;5080368;28;20383;-76
2022/06/11 00:16:25;;;;;;;0.20;0.20;;;;;;;;;;5098490;28;20107;-79
2022/06/11 00:18:54;;;;;;;0.20;0.20;;;;;;;;;;5077544;28;20028;-76
2022/06/11 00:21:19;;;;;;;0.22;0.22;;;;;;;;;;5076956;28;20092;-76
2022/06/11 00:23:46;;;;;;;0.30;0.30;;;;;;;;;;5060384;28;20035;-75
2022/06/11 00:26:11;;;;;;;0.20;0.20;;;;;;;;;;5077087;28;20044;-77
2022/06/11 00:28:38;;;;;;;0.17;0.17;;;;;;;;;;5095196;28;20034;-77
2022/06/11 00:31:05;;;;;;;0.20;0.20;;;;;;;;;;5077145;28;20039;-77
2022/06/11 00:33:31;;;;;;;0.20;0.20;;;;;;;;;;5077096;28;20040;-77
2022/06/11 00:35:56;;;;;;;0.10;0.10;;;;;;;;;;5094902;28;20475;-80
2022/06/11 00:38:23;;;;;;;0.20;0.20;;;;;;;;;;5060415;28;20115;-78
2022/06/11 00:40:50;;;;;;;0.20;0.20;;;;;;;;;;5077094;28;20032;-79
2022/06/11 00:43:16;;;;;;;0.22;0.22;;;;;;;;;;5078307;28;20042;-80
2022/06/11 00:45:44;;;;;;;0.20;0.20;;;;;;;;;;5077023;28;20066;-79
2022/06/11 00:48:15;;;;;;;0.20;0.20;;;;;;;;;;5094071;28;20036;-79
2022/06/11 00:50:47;;;;;;;0.20;0.20;;;;;;;;;;5093282;28;20472;-77
2022/06/11 00:53:16;;;;;;;0.20;0.20;;;;;;;;;;5076435;28;20036;-79
2022/06/11 00:55:42;;;;;;;0.20;0.20;;;;;;;;;;5059627;28;20032;-77
2022/06/11 00:58:12;;;;;;;0.22;0.22;;;;;;;;;;5094225;28;20032;-78
2022/06/11 01:00:41;;;;;;;0.20;0.20;;;;;;;;;;5059674;28;20123;-77
2022/06/11 01:03:08;;;;;;;0.20;0.20;;;;;;;;;;5076494;28;20043;-77
2022/06/11 01:05:36;;;;;;;0.10;0.10;;;;;;;;;;5076157;28;20534;-76
2022/06/11 01:08:01;;;;;;;0.20;0.20;;;;;;;;;;5094426;28;20024;-79
2022/06/11 01:10:45;;;;;;;0.10;0.10;;;;;;;;;;5094323;28;20390;-79
2022/06/11 01:13:14;;;;;;;0.13;0.13;;;;;;;;;;5094332;28;20387;-78
2022/06/11 01:15:43;;;;;;;0.20;0.20;;;;;;;;;;5094334;28;20032;-77
2022/06/11 01:18:10;;;;;;;0.20;0.20;;;;;;;;;;5059509;28;20399;-77
2022/06/11 01:20:39;;;;;;;0.20;0.20;;;;;;;;;;5076147;28;20044;-77
2022/06/11 01:23:27;;;;;;;0.20;0.20;;;;;;;;;;5094145;28;20028;-77
2022/06/11 01:25:58;;;;;;;0.20;0.20;;;;;;;;;;5075957;28;20080;-77
2022/06/11 01:28:32;;;;;;;0.20;0.20;;;;;;;;;;5093900;28;20453;-77
2022/06/11 01:31:07;;;;;;;0.20;0.20;;;;;;;;;;5074659;28;20047;-76
2022/06/11 01:33:41;;;;;;;0.20;0.20;;;;;;;;;;5059151;28;20036;-77
2022/06/11 01:36:11;;;;;;;0.10;0.10;;;;;;;;;;5093805;28;20115;-77
2022/06/11 01:38:40;;;;;;;0.10;0.10;;;;;;;;;;5075752;28;20028;-76
2022/06/11 01:41:26;;;;;;;0.20;0.20;;;;;;;;;;5075914;28;20036;-76
2022/06/11 01:43:59;;;;;;;0.10;0.10;;;;;;;;;;5075673;28;20036;-76
2022/06/11 01:46:27;;;;;;;0.10;0.10;;;;;;;;;;5093859;28;20044;-76
2022/06/11 01:48:57;;;;;;;0.30;0.30;;;;;;;;;;5075399;28;20549;-78
2022/06/11 01:51:29;;;;;;;0.20;0.20;;;;;;;;;;5075312;28;20031;-76
2022/06/11 01:54:09;;;;;;;0.20;0.20;;;;;;;;;;5075800;28;20043;-76
2022/06/11 01:56:53;;;;;;;0.17;0.17;;;;;;;;;;5075446;28;20036;-76
2022/06/11 01:59:31;;;;;;;0.10;0.10;;;;;;;;;;5093493;28;20052;-76
2022/06/11 02:02:03;;;;;;;0.55;0.55;;;;;;;;;;5075174;28;20043;-76
2022/06/11 02:04:44;;;;;;;0.20;0.20;;;;;;;;;;5093417;28;20089;-78
2022/06/11 02:07:20;;;;;;;0.10;0.10;;;;;;;;;;5075317;28;20369;-77
2022/06/11 02:10:00;;;;;;;2.45;2.25;;;;;;;;;;5093407;28;20696;-76
2022/06/11 02:12:29;;;;;;;0.20;0.20;;;;;;;;;;5058508;28;20039;-75
2022/06/11 02:14:59;;;;;;;0.30;0.30;;;;;;;;;;5093148;28;20028;-76
2022/06/11 02:17:36;;;;;;;0.20;0.20;;;;;;;;;;5075111;28;20093;-77
2022/06/11 02:20:01;;;;;;;0.10;0.10;;;;;;;;;;5093287;28;20038;-76
2022/06/11 02:22:32;;;;;;;0.10;0.10;;;;;;;;;;5093040;28;20114;-77
2022/06/11 02:25:18;;;;;;;0.10;0.10;;;;;;;;;;5074895;28;20035;-76
2022/06/11 02:27:45;;;;;;;0.10;0.10;;;;;;;;;;5092929;28;20107;-77
2022/06/11 02:30:12;;;;;;;0.22;0.22;;;;;;;;;;5074968;28;20432;-76
2022/06/11 02:32:38;;;;;;;0.20;0.20;;;;;;;;;;5074889;28;20034;-78
2022/06/11 02:35:06;;;;;;;1.10;1.10;;;;;;;;;;5092832;28;20488;-76
2022/06/11 02:37:33;;;;;;;0.10;0.10;;;;;;;;;;5074857;28;20074;-76
2022/06/11 02:40:05;;;;;;;0.20;0.20;;;;;;;;;;5092868;28;20028;-76
2022/06/11 02:42:31;;;;;;;4.07;3.80;;;;;;;;;;5074150;28;20028;-76
2022/06/11 02:44:57;;;;;;;0.10;0.10;;;;;;;;;;5092721;28;20043;-77
2022/06/11 02:47:22;;;;;;;0.10;0.10;;;;;;;;;;5092709;28;20039;-76
2022/06/11 02:49:48;;;;;;;0.20;0.20;;;;;;;;;;5092608;28;20031;-76
2022/06/11 02:52:15;;;;;;;0.15;0.15;;;;;;;;;;5092963;28;20032;-77
2022/06/11 02:54:41;;;;;;;0.20;0.20;;;;;;;;;;5092655;28;20032;-76
2022/06/11 02:57:13;;;;;;;0.13;0.13;;;;;;;;;;5092573;28;20043;-76
2022/06/11 02:59:39;;;;;;;0.10;0.10;;;;;;;;;;5073476;28;20085;-77
2022/06/11 03:02:05;;;;;;;0.13;0.13;;;;;;;;;;5090451;28;20040;-78
2022/06/11 03:04:31;;;;;;;0.17;0.17;;;;;;;;;;5069102;28;20040;-77
2022/06/11 03:06:57;;;;;;;0.30;0.30;;;;;;;;;;5069553;28;20039;-78
2022/06/11 03:09:24;;;;;;;0.10;0.10;;;;;;;;;;5087614;28;20036;-77
2022/06/11 03:11:50;;;;;;;0.17;0.17;;;;;;;;;;5070482;28;20034;-76
2022/06/11 03:14:15;;;;;;;0.10;0.10;;;;;;;;;;5070020;28;20135;-77
2022/06/11 03:16:41;;;;;;;0.10;0.10;;;;;;;;;;5088518;28;20032;-77
2022/06/11 03:19:08;;;;;;;0.20;0.20;;;;;;;;;;5069499;28;20024;-76
2022/06/11 03:21:34;;;;;;;0.20;0.20;;;;;;;;;;5088439;28;20476;-77
2022/06/11 03:24:00;;;;;;;0.20;0.20;;;;;;;;;;5088161;28;20028;-77
2022/06/11 03:26:25;;;;;;;0.17;0.17;;;;;;;;;;5088322;28;20559;-75
2022/06/11 03:28:51;;;;;;;0.20;0.20;;;;;;;;;;5088523;28;20114;-83
2022/06/11 03:31:17;;;;;;;0.10;0.10;;;;;;;;;;5070630;28;20499;-77
2022/06/11 03:33:43;;;;;;;0.20;0.20;;;;;;;;;;5087890;28;20035;-81
2022/06/11 03:36:10;;;;;;;0.10;0.10;;;;;;;;;;5069697;28;20039;-76
2022/06/11 03:38:37;;;;;;;0.43;0.43;;;;;;;;;;5087944;28;20030;-80
2022/06/11 03:41:03;;;;;;;0.20;0.20;;;;;;;;;;5088259;28;20020;-77
2022/06/11 03:43:28;;;;;;;0.20;0.20;;;;;;;;;;5069891;28;20032;-74
2022/06/11 03:45:54;;;;;;;0.13;0.13;;;;;;;;;;5087817;28;20081;-77
2022/06/11 03:48:20;;;;;;;0.20;0.20;;;;;;;;;;5087844;28;20028;-78
2022/06/11 03:50:46;;;;;;;0.10;0.10;;;;;;;;;;5069849;28;20036;-76
2022/06/11 03:53:12;;;;;;;0.20;0.20;;;;;;;;;;5083881;28;20035;-78
2022/06/11 03:55:39;;;;;;;0.20;0.20;;;;;;;;;;5064242;28;20515;-77
2022/06/11 03:58:05;;;;;;;0.20;0.20;;;;;;;;;;5091482;28;20066;-76
2022/06/11 04:03:17;;;;;;;0.10;0.10;;;;;;;;;;5072996;28;20051;-75
2022/06/11 04:05:43;;;;;;;0.20;0.20;;;;;;;;;;5091252;28;20040;-75
2022/06/11 04:08:08;;;;;;;0.20;0.20;;;;;;;;;;5072536;28;20130;-77
2022/06/11 04:10:34;;;;;;;1.15;1.15;;;;;;;;;;5091011;28;20095;-76
2022/06/11 04:13:00;;;;;;;0.10;0.10;;;;;;;;;;5091524;28;20086;-77
2022/06/11 04:15:25;;;;;;;0.20;0.20;;;;;;;;;;5072688;28;20451;-77
2022/06/11 04:17:52;;;;;;;0.20;0.20;;;;;;;;;;5091304;28;20027;-77
2022/06/11 04:20:17;;;;;;;0.20;0.20;;;;;;;;;;5091067;28;20036;-76
2022/06/11 04:22:43;;;;;;;0.20;0.20;;;;;;;;;;5073257;28;20053;-77
2022/06/11 04:25:11;;;;;;;0.15;0.15;;;;;;;;;;5072838;28;20032;-78
2022/06/11 04:27:37;;;;;;;0.28;0.28;;;;;;;;;;5073354;28;20471;-76
2022/06/11 04:30:03;;;;;;;0.20;0.20;;;;;;;;;;5090753;28;20050;-77
2022/06/11 04:32:28;;;;;;;0.20;0.20;;;;;;;;;;5072934;28;20487;-76
2022/06/11 04:34:54;;;;;;;0.20;0.20;;;;;;;;;;5056552;28;20480;-79
2022/06/11 04:37:21;;;;;;;0.20;0.20;;;;;;;;;;5090995;28;20789;-78
2022/06/11 04:39:48;;;;;;;0.20;0.20;;;;;;;;;;5090846;28;20123;-77
2022/06/11 04:42:14;;;;;;;0.20;0.20;;;;;;;;;;5090779;28;20036;-78
2022/06/11 04:44:41;;;;;;;0.20;0.20;;;;;;;;;;5072494;28;20031;-78
2022/06/11 04:47:07;;;;;;;0.20;0.20;;;;;;;;;;5072049;28;20085;-76
2022/06/11 04:49:33;;;;;;;0.10;0.10;;;;;;;;;;5091083;28;20024;-79
2022/06/11 04:51:58;;;;;;;0.10;0.10;;;;;;;;;;5089986;28;20028;-83
2022/06/11 04:54:24;;;;;;;0.20;0.20;;;;;;;;;;5091185;28;20081;-80
2022/06/11 04:56:49;;;;;;;0.35;0.35;;;;;;;;;;5089696;28;20035;-82
2022/06/11 04:59:15;;;;;;;0.10;0.10;;;;;;;;;;5076053;28;20047;-77
2022/06/11 05:01:41;;;;;;;0.20;0.20;;;;;;;;;;5091433;28;20035;-77
2022/06/11 05:04:07;;;;;;;0.30;0.30;;;;;;;;;;5090205;28;20032;-77
2022/06/11 05:06:37;;;;;;;0.20;0.20;;;;;;;;;;5090795;28;20032;-77
2022/06/11 05:09:02;;;;;;;0.30;0.30;;;;;;;;;;5090011;28;20088;-82
2022/06/11 05:11:28;;;;;;;0.17;0.17;;;;;;;;;;5087475;28;20115;-77
2022/06/11 05:13:54;;;;;;;0.30;0.30;;;;;;;;;;5088741;28;20390;-77
2022/06/11 05:16:20;;;;;;;0.30;0.30;;;;;;;;;;5090129;28;20388;-79
2022/06/11 05:18:46;;;;;;;0.40;0.40;;;;;;;;;;5072785;28;20036;-79
2022/06/11 05:21:12;;;;;;;0.20;0.20;;;;;;;;;;5089925;28;20514;-78
2022/06/11 05:23:38;;;;;;;0.30;0.30;;;;;;;;;;5088860;28;20047;-76
2022/06/11 05:26:05;;;;;;;0.20;0.20;;;;;;;;;;5089047;28;20031;-79
2022/06/11 05:28:31;;;;;;;0.20;0.20;;;;;;;;;;5090277;28;20561;-77
2022/06/11 05:30:58;;;;;;;0.50;0.50;;;;;;;;;;5071839;28;20475;-76
2022/06/11 05:33:24;;;;;;;0.20;0.20;;;;;;;;;;5071988;28;20029;-75
2022/06/11 05:35:51;;;;;;;0.20;0.20;;;;;;;;;;5071023;28;20195;-77
2022/06/11 05:38:18;;;;;;;0.75;0.75;;;;;;;;;;5089995;28;20036;-77
2022/06/11 05:40:45;;;;;;;1.90;1.65;;;;;;;;;;5089600;28;20016;-77
2022/06/11 05:43:11;;;;;;;0.10;0.10;;;;;;;;;;5089808;28;20119;-77
2022/06/11 05:45:42;;;;;;;0.13;0.13;;;;;;;;;;5071520;28;20487;-77
2022/06/11 05:48:09;;;;;;;0.20;0.20;;;;;;;;;;5071269;28;20119;-77
2022/06/11 05:50:37;;;;;;;0.30;0.30;;;;;;;;;;5082531;28;20035;-80
2022/06/11 05:53:03;;;;;;;0.20;0.20;;;;;;;;;;5087119;28;20116;-77
2022/06/11 05:55:31;;;;;;;0.20;0.20;;;;;;;;;;5071651;28;20165;-79
2022/06/11 05:57:57;;;;;;;0.17;0.17;;;;;;;;;;5057767;28;20062;-80
2022/06/11 06:00:24;;;;;;;0.22;0.22;;;;;;;;;;5085264;28;20119;-77
2022/06/11 06:02:50;;;;;;;0.20;0.20;;;;;;;;;;5089408;28;20028;-77
2022/06/11 06:05:18;;;;;;;0.20;0.20;;;;;;;;;;5087670;28;20059;-75
2022/06/11 06:07:44;;;;;;;0.20;0.20;;;;;;;;;;5089352;28;20094;-76
2022/06/11 06:10:09;;;;;;;0.20;0.20;;;;;;;;;;5089403;28;20032;-75
2022/06/11 06:12:35;;;;;;;0.50;0.50;;;;;;;;;;5089025;28;20114;-78
2022/06/11 06:15:02;;;;;;;0.17;0.17;;;;;;;;;;5064900;28;20106;-76
2022/06/11 06:17:28;;;;;;;0.20;0.20;;;;;;;;;;5055832;28;20369;-76
2022/06/11 06:19:53;;;;;;;0.20;0.20;;;;;;;;;;5051185;28;20039;-76
2022/06/11 06:22:19;;;;;;;0.30;0.30;;;;;;;;;;5050205;28;20040;-79
2022/06/11 06:24:47;;;;;;;0.20;0.20;;;;;;;;;;5072372;28;20039;-77
2022/06/11 06:27:12;;;;;;;0.20;0.20;;;;;;;;;;5073858;28;20051;-77
2022/06/11 06:29:38;;;;;;;0.20;0.20;;;;;;;;;;5071942;28;20029;-77
2022/06/11 06:32:04;;;;;;;0.50;0.40;;;;;;;;;;5066648;28;20033;-78
2022/06/11 06:34:29;;;;;;;0.20;0.20;;;;;;;;;;5066802;28;20028;-76
2022/06/11 06:36:55;;;;;;;0.22;0.22;;;;;;;;;;5060873;28;20036;-77
2022/06/11 06:39:20;;;;;;;0.20;0.20;;;;;;;;;;5086925;28;20058;-79
2022/06/11 06:41:46;;;;;;;0.20;0.20;;;;;;;;;;5068720;28;20039;-77
2022/06/11 06:44:12;;;;;;;0.20;0.20;;;;;;;;;;5086826;28;20757;-75
2022/06/11 06:46:37;;;;;;;0.20;0.20;;;;;;;;;;5087948;28;20063;-74
2022/06/11 06:49:03;;;;;;;0.90;0.82;;;;;;;;;;5087427;28;20024;-74
2022/06/11 06:51:29;;;;;;;0.20;0.20;;;;;;;;;;5070191;28;20032;-74
2022/06/11 06:53:54;;;;;;;0.20;0.20;;;;;;;;;;5088721;28;20036;-75
2022/06/11 06:56:20;;;;;;;0.38;0.38;;;;;;;;;;5088443;28;20065;-75
2022/06/11 06:58:46;;;;;;;0.20;0.20;;;;;;;;;;5088648;28;20077;-74
2022/06/11 07:01:11;;;;;;;0.20;0.20;;;;;;;;;;5082313;28;20399;-75
2022/06/11 07:03:37;;;;;;;0.20;0.20;;;;;;;;;;5061089;28;20558;-76
2022/06/11 07:06:03;;;;;;;0.20;0.20;;;;;;;;;;5052068;28;20045;-75
2022/06/11 07:08:29;;;;;;;0.28;0.28;;;;;;;;;;5088114;28;20024;-76
2022/06/11 07:10:54;;;;;;;0.95;0.68;;;;;;;;;;5083049;28;20035;-77
2022/06/11 07:13:20;;;;;;;0.20;0.20;;;;;;;;;;5069297;28;20060;-76
2022/06/11 07:15:48;;;;;;;0.20;0.20;;;;;;;;;;5082190;28;20036;-77
2022/06/11 07:18:20;;;;;;;0.47;0.47;;;;;;;;;;5074221;28;20040;-75
2022/06/11 07:20:47;;;;;;;0.20;0.20;;;;;;;;;;5033999;28;20446;-79
2022/06/11 07:23:12;;;;;;;0.52;0.45;;;;;;;;;;5050452;28;20031;-76
2022/06/11 07:25:40;;;;;;;0.25;0.25;;;;;;;;;;5068089;28;20123;-76
2022/06/11 07:28:07;;;;;;;0.22;0.22;;;;;;;;;;5069529;28;20020;-84
2022/06/11 07:30:35;;;;;;;0.30;0.30;;;;;;;;;;5071885;28;20107;-78
2022/06/11 07:33:05;;;;;;;0.20;0.20;;;;;;;;;;5053861;28;20111;-76
2022/06/11 07:35:31;;;;;;;0.20;0.20;;;;;;;;;;5071586;28;20063;-76
2022/06/11 07:37:56;;;;;;;0.30;0.30;;;;;;;;;;5071285;28;20063;-77
2022/06/11 07:40:24;;;;;;;0.30;0.30;;;;;;;;;;5071824;28;20413;-78
2022/06/11 07:42:49;;;;;;;0.20;0.20;;;;;;;;;;5071850;28;20021;-75
2022/06/11 07:45:15;;;;;;;0.20;0.20;;;;;;;;;;5082097;28;20036;-76
2022/06/11 07:47:56;;;;;;;0.20;0.20;;;;;;;;;;5087921;28;20535;-78
2022/06/11 07:50:23;;;;;;;0.57;0.57;;;;;;;;;;5089866;28;20314;-75
2022/06/11 07:52:49;;;;;;;0.20;0.20;;;;;;;;;;5082300;28;20037;-77
2022/06/11 07:55:15;;;;;;;0.35;0.35;;;;;;;;;;5052932;28;20404;-79
2022/06/11 07:57:40;;;;;;;0.45;0.45;;;;;;;;;;5071224;28;20063;-78
2022/06/11 08:00:08;;;;;;;0.20;0.20;;;;;;;;;;5060424;28;20422;-82
2022/06/11 08:02:38;;;;;;;0.47;0.43;;;;;;;;;;5056227;28;20487;-79
2022/06/11 08:05:04;;;;;;;0.30;0.30;;;;;;;;;;5090028;28;20155;-77
2022/06/11 08:07:30;;;;;;;0.90;0.70;;;;;;;;;;5057305;28;20094;-79
2022/06/11 08:09:57;;;;;;;2.35;1.02;;;;;;;;;;5084370;28;20032;-85
2022/06/11 08:12:24;;;;;;;0.20;0.20;;;;;;;;;;5083141;28;20543;-81
2022/06/11 08:14:49;;;;;;;0.30;0.30;;;;;;;;;;5088113;28;20059;-79
2022/06/11 08:17:15;;;;;;;1.30;0.82;;;;;;;;;;5087837;28;20588;-79
2022/06/11 08:19:41;;;;;;;0.43;0.43;;;;;;;;;;5087741;28;20081;-79
2022/06/11 08:22:06;;;;;;;0.20;0.20;;;;;;;;;;5085966;28;20122;-80
2022/06/11 08:24:32;;;;;;;4.65;0.80;;;;;;;;;;5086503;28;20024;-79
2022/06/11 08:26:57;;;;;;;0.85;0.80;;;;;;;;;;5088287;28;20038;-78
2022/06/11 08:29:23;;;;;;;2.65;1.10;;;;;;;;;;5088718;28;20031;-78
2022/06/11 08:31:48;;;;;;;0.25;0.25;;;;;;;;;;5089128;28;20039;-78
2022/06/11 08:34:14;;;;;;;0.38;0.38;;;;;;;;;;5088797;28;20081;-79
2022/06/11 08:36:39;;;;;;;0.45;0.45;;;;;;;;;;5089062;28;20076;-80
2022/06/11 08:39:05;;;;;;;1.33;0.73;;;;;;;;;;5087093;28;20020;-79
2022/06/11 08:41:33;;;;;;;2.35;0.88;;;;;;;;;;5089492;28;20486;-79
2022/06/11 08:44:01;;;;;;;1.23;0.47;;;;;;;;;;5090873;28;20040;-77
2022/06/11 08:46:28;;;;;;;0.38;0.38;;;;;;;;;;5089748;28;20044;-82
2022/06/11 08:49:14;;;;;;;0.20;0.20;;;;;;;;;;5090135;28;20058;-78
2022/06/11 08:51:45;;;;;;;0.50;0.50;;;;;;;;;;5076675;28;20047;-78
2022/06/11 08:54:15;;;;;;;0.40;0.40;;;;;;;;;;5090710;28;20032;-76
2022/06/11 08:56:45;;;;;;;0.82;0.63;;;;;;;;;;5072582;28;20032;-76
2022/06/11 08:59:13;;;;;;;0.98;0.73;;;;;;;;;;5090718;28;20479;-76
2022/06/11 09:01:42;;;;;;;0.47;0.40;;;;;;;;;;5090944;28;20032;-76
2022/06/11 09:04:10;;;;;;;0.20;0.20;;;;;;;;;;5090374;28;20051;-76
2022/06/11 09:06:48;;;;;;;4.75;1.42;;;;;;;;;;5091025;28;20455;-77
2022/06/11 09:09:29;;;;;;;1.50;1.08;;;;;;;;;;5089492;28;20129;-76
2022/06/11 09:12:03;;;;;;;1.90;0.90;;;;;;;;;;5089056;28;20089;-76
2022/06/11 09:14:44;;;;;;;2.40;0.68;;;;;;;;;;5090478;28;20444;-84
2022/06/11 09:17:22;;;;;;;0.38;0.38;;;;;;;;;;5090617;28;20032;-75
2022/06/11 09:19:48;;;;;;;0.50;0.45;;;;;;;;;;5090589;28;20040;-83
2022/06/11 09:22:17;;;;;;;1.95;1.48;;;;;;;;;;5088995;28;20523;-75
2022/06/11 09:24:55;;;;;;;0.40;0.40;;;;;;;;;;5089192;28;20039;-78
2022/06/11 09:27:42;;;;;;;0.30;0.30;;;;;;;;;;5089214;28;20048;-76
2022/06/11 09:30:24;;;;;;;3.60;1.08;;;;;;;;;;5089857;28;20051;-76
2022/06/11 09:32:52;;;;;;;0.60;0.55;;;;;;;;;;5090367;28;20043;-77
2022/06/11 09:35:19;;;;;;;0.50;0.50;;;;;;;;;;5090213;28;20115;-78
2022/06/11 09:38:02;;;;;;;0.90;0.77;;;;;;;;;;5088693;28;20521;-75
2022/06/11 09:40:27;;;;;;;1.75;0.77;;;;;;;;;;5090016;28;20039;-77
2022/06/11 09:42:59;;;;;;;0.25;0.25;;;;;;;;;;5089927;28;20391;-76
2022/06/11 09:45:31;;;;;;;0.52;0.52;;;;;;;;;;5089854;28;20039;-76
2022/06/11 09:48:00;;;;;;;2.33;1.38;;;;;;;;;;5089304;28;20039;-76
2022/06/11 09:50:33;;;;;;;1.37;0.90;;;;;;;;;;5089077;28;20492;-76
2022/06/11 09:53:07;;;;;;;0.30;0.30;;;;;;;;;;5089109;28;20526;-76
2022/06/11 09:55:36;;;;;;;0.88;0.73;;;;;;;;;;5088409;28;20483;-76
2022/06/11 09:58:24;;;;;;;0.93;0.60;;;;;;;;;;5078396;28;20029;-73
2022/06/11 10:00:53;;;;;;;;;;;;;;;;;;5069853;28;20028;-72
2022/06/11 10:03:31;;;;;;;0.50;0.35;;;;;;;;;;5069341;28;19919;-74
2022/06/11 10:06:00;;;;;;;1.85;1.15;;;;;;;;;;5069150;28;20037;-74
2022/06/11 10:08:35;;;;;;;0.90;0.75;;;;;;;;;;5069654;28;20426;-73
2022/06/11 10:11:04;;;;;;;2.05;1.13;;;;;;;;;;5050904;28;20032;-73
2022/06/11 10:13:39;;;;;;;4.68;1.08;;;;;;;;;;5066558;28;20048;-79
2022/06/11 10:16:11;;;;;;;2.35;1.30;;;;;;;;;;5049504;28;20502;-76
2022/06/11 10:18:39;;;;;;;0.77;0.55;;;;;;;;;;5049315;28;20044;-75
2022/06/11 10:21:07;;;;;;;0.55;0.55;;;;;;;;;;5067235;28;20112;-80
2022/06/11 10:23:43;;;;;;;1.00;0.87;;;;;;;;;;5066926;28;20518;-75
2022/06/11 10:26:11;;;;;;;0.55;0.50;;;;;;;;;;5054146;28;20290;-74
2022/06/11 10:28:56;;;;;;;0.38;0.38;;;;;;;;;;5078018;28;20032;-75
2022/06/11 10:31:28;;;;;;;0.30;0.30;;;;;;;;;;5081506;28;20039;-70
2022/06/11 10:33:56;;;;;;;2.83;0.60;;;;;;;;;;5086898;28;20078;-68
2022/06/11 10:36:22;;;;;;;1.75;0.65;;;;;;;;;;5068538;28;20865;-71
2022/06/11 10:39:11;;;;;;;0.60;0.60;;;;;;;;;;5070759;28;20036;-69
2022/06/11 10:42:00;;;;;;;2.35;0.90;;;;;;;;;;5050241;28;20545;-69
2022/06/11 10:44:44;;;;;;;10.65;1.33;;;;;;;;;;5042436;28;20049;-67
2022/06/11 10:47:19;;;;;;;0.90;0.70;;;;;;;;;;5067253;28;20477;-71
2022/06/11 10:49:46;;;;;;;1.27;0.88;;;;;;;;;;5067321;28;20032;-68
2022/06/11 10:52:14;;;;;;;2.38;0.50;;;;;;;;;;5068387;28;20032;-71
2022/06/11 10:54:40;;;;;;;0.90;0.70;;;;;;;;;;5065966;28;20059;-70
2022/06/11 10:57:11;;;;;;;1.65;0.65;;;;;;;;;;5066519;28;20491;-69
2022/06/11 10:59:45;;;;;;;0.88;0.70;;;;;;;;;;5066808;28;20115;-69
2022/06/11 11:02:19;;;;;;;0.40;0.40;;;;;;;;;;5047666;28;20063;-69
2022/06/11 11:05:20;;;;;;;1.10;0.60;;;;;;;;;;5066358;28;20036;-69
2022/06/11 11:07:54;;;;;;;0.82;0.80;;;;;;;;;;5000106;28;20085;-69
2022/06/11 11:10:29;;;;;;;0.30;0.30;;;;;;;;;;5074771;28;20074;-70
2022/06/11 11:12:57;;;;;;;0.90;0.45;;;;;;;;;;5069111;28;20511;-69
2022/06/11 11:15:26;;;;;;;1.08;0.88;;;;;;;;;;5052846;28;20032;-71
2022/06/11 11:17:53;;;;;;;1.40;1.10;;;;;;;;;;5050217;28;20028;-69
2022/06/11 11:20:32;;;;;;;1.67;0.73;;;;;;;;;;5058281;28;20032;-69
2022/06/11 11:23:03;;;;;;;1.08;0.75;;;;;;;;;;5065081;28;20032;-73
2022/06/11 11:25:31;;;;;;;1.63;0.98;;;;;;;;;;5050199;28;20060;-69
2022/06/11 11:27:57;;;;;;;1.15;1.05;;;;;;;;;;5056727;28;20036;-70
2022/06/11 11:30:32;;;;;;;0.85;0.70;;;;;;;;;;5083933;28;20036;-75
2022/06/11 11:33:12;;;;;;;1.33;0.98;;;;;;;;;;5051080;28;20094;-68
2022/06/11 11:35:39;;;;;;;1.00;0.70;;;;;;;;;;5067299;28;20436;-67
2022/06/11 11:38:11;;;;;;;5.78;1.30;;;;;;;;;;5046419;28;20479;-72
2022/06/11 11:40:49;;;;;;;0.98;0.70;;;;;;;;;;5084645;28;20476;-69
2022/06/11 11:43:15;;;;;;;1.20;0.50;;;;;;;;;;5054085;28;20032;-71
2022/06/11 11:45:46;;;;;;;0.68;0.60;;;;;;;;;;5057469;28;20609;-73
2022/06/11 11:48:14;;;;;;;0.63;0.60;;;;;;;;;;5068060;28;20429;-72
2022/06/11 11:50:41;;;;;;;0.63;0.50;;;;;;;;;;5086900;28;20052;-72
2022/06/11 11:53:06;;;;;;;0.40;0.40;;;;;;;;;;5088562;28;20031;-73
2022/06/11 11:55:34;;;;;;;0.73;0.47;;;;;;;;;;5081303;28;20067;-73
2022/06/11 11:58:29;;;;;;;1.00;0.73;;;;;;;;;;5072267;28;20020;-72
2022/06/11 12:00:54;;;;;;;0.65;0.43;;;;;;;;;;5060849;28;20036;-71
2022/06/11 12:03:20;;;;;;;0.35;0.35;;;;;;;;;;5080132;28;20024;-73
2022/06/11 12:05:53;;;;;;;0.45;0.43;;;;;;;;;;5079241;28;20047;-74
2022/06/11 12:08:25;;;;;;;1.92;0.90;;;;;;;;;;5067735;28;20036;-73
2022/06/11 12:10:52;;;;;;;1.48;0.93;;;;;;;;;;5076939;28;20415;-74
2022/06/11 12:13:28;;;;;;;2.40;1.00;;;;;;;;;;5075793;28;20024;-75
2022/06/11 12:15:53;;;;;;;2.08;0.93;;;;;;;;;;5081685;28;20514;-74
2022/06/11 12:18:21;;;;;;;0.85;0.60;;;;;;;;;;5062851;28;20028;-75
2022/06/11 12:20:50;;;;;;;1.50;1.20;;;;;;;;;;5056763;28;20067;-74
2022/06/11 12:23:25;;;;;;;2.47;1.10;;;;;;;;;;5082530;28;20093;-74
2022/06/11 12:25:53;;;;;;;0.38;0.38;;;;;;;;;;5082529;28;20051;-74
2022/06/11 12:28:21;;;;;;;1.38;1.05;;;;;;;;;;5089578;28;20055;-75
2022/06/11 12:30:48;;;;;;;2.28;0.75;;;;;;;;;;5090149;28;20058;-76
2022/06/11 12:33:14;;;;;;;1.10;1.00;;;;;;;;;;5090752;28;20043;-75
2022/06/11 12:35:52;;;;;;;0.98;0.80;;;;;;;;;;5073324;28;20036;-75
2022/06/11 12:38:17;;;;;;;0.38;0.38;;;;;;;;;;5083982;28;20121;-77
2022/06/11 12:40:49;;;;;;;0.30;0.30;;;;;;;;;;5076334;28;20420;-77
2022/06/11 12:43:15;;;;;;;0.63;0.63;;;;;;;;;;5060745;28;20032;-74
2022/06/11 12:46:01;;;;;;;1.35;0.82;;;;;;;;;;5084159;28;20123;-72
2022/06/11 12:48:38;;;;;;;1.55;1.02;;;;;;;;;;5075121;28;20038;-75
2022/06/11 12:51:15;;;;;;;0.30;0.30;;;;;;;;;;5060927;28;20032;-76
2022/06/11 12:53:44;;;;;;;2.08;0.80;;;;;;;;;;5079328;28;20044;-75
2022/06/11 12:56:15;;;;;;;1.45;0.82;;;;;;;;;;5078938;28;20035;-73
2022/06/11 12:58:50;;;;;;;1.20;0.95;;;;;;;;;;5083533;28;20047;-76
2022/06/11 13:01:22;;;;;;;0.45;0.45;;;;;;;;;;5068261;28;20086;-78
2022/06/11 13:04:17;;;;;;;1.58;0.85;;;;;;;;;;5050124;28;20068;-76
2022/06/11 13:06:46;;;;;;;1.27;0.73;;;;;;;;;;5052099;28;20047;-74
2022/06/11 13:09:30;;;;;;;0.80;0.30;;;;;;;;;;5059402;28;20028;-74
2022/06/11 13:11:56;;;;;;;3.75;1.17;;;;;;;;;;5068234;28;20116;-79
2022/06/11 13:14:41;;;;;;;2.47;1.10;;;;;;;;;;5072642;28;20550;-73
2022/06/11 13:17:21;;;;;;;3.67;0.98;;;;;;;;;;5075155;28;20537;-77
2022/06/11 13:20:00;;;;;;;1.00;0.90;;;;;;;;;;5044625;28;20036;-72
2022/06/11 13:22:25;;;;;;;7.28;0.88;;;;;;;;;;5071537;28;20078;-77
2022/06/11 13:25:06;;;;;;;1.45;1.02;;;;;;;;;;5040941;28;20040;-79
2022/06/11 13:27:54;;;;;;;2.85;1.02;;;;;;;;;;5082849;28;20063;-75
2022/06/11 13:30:23;;;;;;;1.75;1.20;;;;;;;;;;5066516;28;20058;-75
2022/06/11 13:32:51;;;;;;;0.50;0.50;;;;;;;;;;5086239;28;20024;-80
2022/06/11 13:35:23;;;;;;;3.35;1.60;;;;;;;;;;5068209;28;20024;-74
2022/06/11 13:38:07;;;;;;;0.85;0.75;;;;;;;;;;5086666;28;20081;-70
2022/06/11 13:40:59;;;;;;;1.23;0.77;;;;;;;;;;5068553;28;20048;-72
2022/06/11 13:43:32;;;;;;;1.00;0.50;;;;;;;;;;5081789;28;20040;-73
2022/06/11 13:46:03;;;;;;;0.73;0.68;;;;;;;;;;5086470;28;20102;-71
2022/06/11 13:48:47;;;;;;;1.38;1.00;;;;;;;;;;5085879;28;20024;-74
2022/06/11 13:51:14;;;;;;;1.15;0.82;;;;;;;;;;5086135;28;20058;-73
2022/06/11 13:56:31;;;;;;;1.20;0.93;;;;;;;;;;5086142;28;20116;-73
2022/06/11 13:59:00;;;;;;;1.60;1.05;;;;;;;;;;5067635;28;20032;-76
2022/06/11 14:01:34;;;;;;;1.42;1.15;;;;;;;;;;5087951;28;20063;-72
2022/06/11 14:03:59;;;;;;;1.25;0.90;;;;;;;;;;5085704;28;20032;-75
2022/06/11 14:06:25;;;;;;;1.98;1.17;;;;;;;;;;5068620;28;20051;-75
2022/06/11 14:09:06;;;;;;;4.15;1.52;;;;;;;;;;5069357;28;20040;-77
2022/06/11 14:11:34;;;;;;;0.98;0.55;;;;;;;;;;5068287;28;20044;-76
2022/06/11 14:14:02;;;;;;;1.30;0.80;;;;;;;;;;5087260;28;20292;-80
2022/06/11 14:16:30;;;;;;;2.63;1.10;;;;;;;;;;5087546;28;20036;-81
2022/06/11 14:18:56;;;;;;;0.60;0.60;;;;;;;;;;5086968;28;20028;-80
2022/06/11 14:21:43;;;;;;;0.22;0.22;;;;;;;;;;5086337;28;20554;-76
2022/06/11 14:24:10;;;;;;;1.60;1.00;;;;;;;;;;5085114;28;20032;-71
2022/06/11 14:26:41;;;;;;;1.27;0.80;;;;;;;;;;5067331;28;20513;-73
2022/06/11 14:29:15;;;;;;;3.58;1.40;;;;;;;;;;5085619;28;20073;-71
2022/06/11 14:31:52;;;;;;;2.00;1.10;;;;;;;;;;5067369;28;20040;-76
2022/06/11 14:34:20;;;;;;;4.30;1.00;;;;;;;;;;5050308;28;20039;-74
2022/06/11 14:37:00;;;;;;;3.30;1.10;;;;;;;;;;5066767;28;20394;-73
2022/06/11 14:39:31;;;;;;;0.70;0.60;;;;;;;;;;5087324;28;20028;-75
2022/06/11 14:42:26;;;;;;;1.35;1.00;;;;;;;;;;5086490;28;20031;-73
2022/06/11 14:45:10;;;;;;;0.82;0.70;;;;;;;;;;5073408;28;20036;-74
2022/06/11 14:47:51;;;;;;;3.03;0.85;;;;;;;;;;5068638;28;20059;-73
2022/06/11 14:50:35;;;;;;;1.55;0.90;;;;;;;;;;5086768;28;20039;-73
2022/06/11 14:53:05;;;;;;;3.05;1.33;;;;;;;;;;5069112;28;20573;-75
2022/06/11 14:55:32;;;;;;;1.48;0.88;;;;;;;;;;5086005;28;20503;-72
2022/06/11 14:58:14;;;;;;;1.73;1.35;;;;;;;;;;5086645;28;20043;-75
2022/06/11 15:01:07;;;;;;;2.17;1.42;;;;;;;;;;5086852;28;20433;-74
2022/06/11 15:03:41;;;;;;;0.80;0.70;;;;;;;;;;5086726;28;20082;-73
2022/06/11 15:06:31;;;;;;;0.22;0.22;;;;;;;;;;5067742;28;20698;-74